sensor_id;sensor_type;location;lat;lon;timestamp;pressure;altitude;pressure_sealevel;temperature;humidity
8069;BME280;4077;43.702;24.896;2023-08-06T00:02:24;98165.41;;;22.33;100.00
8069;BME280;4077;43.702;24.896;2023-08-06T00:04:49;98160.69;;;22.24;100.00
8069;BME280;4077;43.702;24.896;2023-08-06T00:07:15;98164.94;;;22.11;100.00
8069;BME280;4077;43.702;24.896;2023-08-06T00:09:40;98160.75;;;22.07;100.00
8069;BME280;4077;43.702;24.896;2023-08-06T00:12:06;98138.56;;;21.97;100.00
8069;BME280;4077;43.702;24.896;2023-08-06T00:14:31;98123.63;;;21.81;100.00
8069;BME280;4077;43.702;24.896;2023-08-06T00:16:57;98130.88;;;21.62;100.00
8069;BME280;4077;43.702;24.896;2023-08-06T00:19:22;98160.31;;;21.67;100.00
8069;BME280;4077;43.702;24.896;2023-08-06T00:21:48;98159.75;;;21.62;100.00
8069;BME280;4077;43.702;24.896;2023-08-06T00:24:13;98167.69;;;21.61;100.00
8069;BME280;4077;43.702;24.896;2023-08-06T00:26:39;98166.28;;;21.55;100.00
8069;BME280;4077;43.702;24.896;2023-08-06T00:29:04;98164.03;;;21.47;100.00
8069;BME280;4077;43.702;24.896;2023-08-06T00:31:29;98161.00;;;21.39;100.00
8069;BME280;4077;43.702;24.896;2023-08-06T00:33:55;98168.34;;;21.33;100.00
8069;BME280;4077;43.702;24.896;2023-08-06T00:36:20;98151.84;;;21.30;100.00
8069;BME280;4077;43.702;24.896;2023-08-06T00:38:46;98148.75;;;21.22;100.00
8069;BME280;4077;43.702;24.896;2023-08-06T00:41:11;98160.00;;;21.24;100.00
8069;BME280;4077;43.702;24.896;2023-08-06T00:43:37;98159.06;;;21.25;100.00
8069;BME280;4077;43.702;24.896;2023-08-06T00:46:02;98166.81;;;21.28;100.00
8069;BME280;4077;43.702;24.896;2023-08-06T00:48:28;98172.84;;;21.30;100.00
8069;BME280;4077;43.702;24.896;2023-08-06T00:50:53;98156.31;;;21.28;100.00
8069;BME280;4077;43.702;24.896;2023-08-06T00:53:19;98162.16;;;21.34;100.00
8069;BME280;4077;43.702;24.896;2023-08-06T00:55:45;98166.75;;;21.30;100.00
8069;BME280;4077;43.702;24.896;2023-08-06T00:58:11;98176.22;;;21.33;100.00
8069;BME280;4077;43.702;24.896;2023-08-06T01:00:38;98182.25;;;21.35;100.00
8069;BME280;4077;43.702;24.896;2023-08-06T01:03:03;98170.34;;;21.27;100.00
8069;BME280;4077;43.702;24.896;2023-08-06T01:05:29;98148.44;;;21.28;100.00
8069;BME280;4077;43.702;24.896;2023-08-06T01:11:13;98139.84;;;21.25;100.00
8069;BME280;4077;43.702;24.896;2023-08-06T01:13:45;98146.72;;;21.27;100.00
8069;BME280;4077;43.702;24.896;2023-08-06T01:16:15;98142.97;;;21.16;100.00
8069;BME280;4077;43.702;24.896;2023-08-06T01:18:40;98167.44;;;21.16;100.00
8069;BME280;4077;43.702;24.896;2023-08-06T01:21:07;98164.09;;;21.13;100.00
8069;BME280;4077;43.702;24.896;2023-08-06T01:23:32;98160.59;;;21.14;100.00
8069;BME280;4077;43.702;24.896;2023-08-06T01:26:10;98153.38;;;21.17;100.00
8069;BME280;4077;43.702;24.896;2023-08-06T01:31:37;98159.88;;;21.10;100.00
8069;BME280;4077;43.702;24.896;2023-08-06T01:34:07;98159.88;;;21.10;100.00
8069;BME280;4077;43.702;24.896;2023-08-06T01:36:34;98168.69;;;21.09;100.00
8069;BME280;4077;43.702;24.896;2023-08-06T01:39:00;98165.34;;;21.06;100.00
8069;BME280;4077;43.702;24.896;2023-08-06T01:41:26;98177.53;;;21.07;100.00
8069;BME280;4077;43.702;24.896;2023-08-06T01:43:51;98167.00;;;21.08;100.00
8069;BME280;4077;43.702;24.896;2023-08-06T01:46:17;98163.75;;;21.03;100.00
8069;BME280;4077;43.702;24.896;2023-08-06T01:48:42;98160.38;;;21.01;100.00
8069;BME280;4077;43.702;24.896;2023-08-06T01:51:08;98160.53;;;20.98;100.00
8069;BME280;4077;43.702;24.896;2023-08-06T01:53:34;98159.00;;;20.94;100.00
8069;BME280;4077;43.702;24.896;2023-08-06T01:55:59;98151.88;;;20.96;100.00
8069;BME280;4077;43.702;24.896;2023-08-06T01:58:25;98151.88;;;20.96;100.00
8069;BME280;4077;43.702;24.896;2023-08-06T02:00:50;98153.59;;;20.97;100.00
8069;BME280;4077;43.702;24.896;2023-08-06T02:03:16;98148.94;;;21.02;100.00
8069;BME280;4077;43.702;24.896;2023-08-06T02:05:41;98144.63;;;21.01;100.00
8069;BME280;4077;43.702;24.896;2023-08-06T02:08:07;98135.06;;;21.00;100.00
8069;BME280;4077;43.702;24.896;2023-08-06T02:10:32;98132.09;;;21.06;100.00
8069;BME280;4077;43.702;24.896;2023-08-06T02:12:58;98128.56;;;21.07;100.00
8069;BME280;4077;43.702;24.896;2023-08-06T02:15:24;98122.31;;;21.10;100.00
8069;BME280;4077;43.702;24.896;2023-08-06T02:17:49;98126.31;;;20.99;100.00
8069;BME280;4077;43.702;24.896;2023-08-06T02:20:14;98124.50;;;21.01;100.00
8069;BME280;4077;43.702;24.896;2023-08-06T02:22:40;98109.59;;;21.02;100.00
8069;BME280;4077;43.702;24.896;2023-08-06T02:25:05;98115.59;;;21.04;100.00
8069;BME280;4077;43.702;24.896;2023-08-06T02:27:31;98114.66;;;21.05;100.00
8069;BME280;4077;43.702;24.896;2023-08-06T02:29:56;98124.16;;;21.08;100.00
8069;BME280;4077;43.702;24.896;2023-08-06T02:32:22;98126.28;;;21.01;100.00
8069;BME280;4077;43.702;24.896;2023-08-06T02:34:47;98142.59;;;21.06;100.00
8069;BME280;4077;43.702;24.896;2023-08-06T02:37:13;98137.44;;;21.04;100.00
8069;BME280;4077;43.702;24.896;2023-08-06T02:39:38;98135.91;;;21.00;100.00
8069;BME280;4077;43.702;24.896;2023-08-06T02:42:07;98122.28;;;20.94;100.00
8069;BME280;4077;43.702;24.896;2023-08-06T02:44:34;98135.06;;;21.00;100.00
8069;BME280;4077;43.702;24.896;2023-08-06T02:47:00;98138.88;;;20.94;100.00
8069;BME280;4077;43.702;24.896;2023-08-06T02:49:25;98153.59;;;20.97;100.00
8069;BME280;4077;43.702;24.896;2023-08-06T02:51:51;98159.16;;;20.91;100.00
8069;BME280;4077;43.702;24.896;2023-08-06T02:54:18;98164.66;;;20.86;100.00
8069;BME280;4077;43.702;24.896;2023-08-06T02:56:44;98161.31;;;20.83;100.00
8069;BME280;4077;43.702;24.896;2023-08-06T02:59:13;98161.50;;;20.80;100.00
8069;BME280;4077;43.702;24.896;2023-08-06T03:01:39;98166.88;;;20.76;100.00
8069;BME280;4077;43.702;24.896;2023-08-06T03:04:05;98157.31;;;20.75;100.00
8069;BME280;4077;43.702;24.896;2023-08-06T03:06:30;98168.75;;;20.74;100.00
8069;BME280;4077;43.702;24.896;2023-08-06T03:08:55;98168.88;;;20.71;100.00
8069;BME280;4077;43.702;24.896;2023-08-06T03:11:21;98146.22;;;20.70;100.00
8069;BME280;4077;43.702;24.896;2023-08-06T03:13:49;98134.03;;;20.69;100.00
8069;BME280;4077;43.702;24.896;2023-08-06T03:16:15;98134.47;;;20.77;100.00
8069;BME280;4077;43.702;24.896;2023-08-06T03:18:40;98125.53;;;20.64;100.00
8069;BME280;4077;43.702;24.896;2023-08-06T03:21:06;98125.72;;;20.61;100.00
8069;BME280;4077;43.702;24.896;2023-08-06T03:23:31;98120.94;;;20.52;100.00
8069;BME280;4077;43.702;24.896;2023-08-06T03:26:03;98109.09;;;20.43;100.00
8069;BME280;4077;43.702;24.896;2023-08-06T03:28:29;98110.63;;;20.30;100.00
8069;BME280;4077;43.702;24.896;2023-08-06T03:31:04;98123.34;;;20.38;100.00
8069;BME280;4077;43.702;24.896;2023-08-06T03:33:29;98115.34;;;20.23;100.00
8069;BME280;4077;43.702;24.896;2023-08-06T03:35:55;98109.94;;;20.09;100.00
8069;BME280;4077;43.702;24.896;2023-08-06T03:38:21;98127.59;;;20.06;100.00
8069;BME280;4077;43.702;24.896;2023-08-06T03:40:48;98126.75;;;20.05;100.00
8069;BME280;4077;43.702;24.896;2023-08-06T03:43:14;98123.34;;;20.03;100.00
8069;BME280;4077;43.702;24.896;2023-08-06T03:45:40;98118.09;;;20.03;100.00
8069;BME280;4077;43.702;24.896;2023-08-06T03:48:06;98121.81;;;19.99;100.00
8069;BME280;4077;43.702;24.896;2023-08-06T03:50:31;98127.44;;;20.09;100.00
8069;BME280;4077;43.702;24.896;2023-08-06T03:52:57;98138.75;;;20.09;100.00
8069;BME280;4077;43.702;24.896;2023-08-06T03:55:22;98130.75;;;20.12;100.00
8069;BME280;4077;43.702;24.896;2023-08-06T03:57:48;98120.28;;;20.12;100.00
8069;BME280;4077;43.702;24.896;2023-08-06T04:00:13;98119.97;;;20.18;100.00
8069;BME280;4077;43.702;24.896;2023-08-06T04:02:39;98113.66;;;20.22;100.00
8069;BME280;4077;43.702;24.896;2023-08-06T04:05:09;98117.81;;;20.27;100.00
8069;BME280;4077;43.702;24.896;2023-08-06T04:07:35;98129.06;;;20.29;100.00
8069;BME280;4077;43.702;24.896;2023-08-06T04:10:02;98124.59;;;20.31;100.00
8069;BME280;4077;43.702;24.896;2023-08-06T04:12:28;98131.47;;;20.33;100.00
8069;BME280;4077;43.702;24.896;2023-08-06T04:14:55;98146.19;;;20.36;100.00
8069;BME280;4077;43.702;24.896;2023-08-06T04:17:21;98151.28;;;20.39;100.00
8069;BME280;4077;43.702;24.896;2023-08-06T04:19:48;98155.44;;;20.43;100.00
8069;BME280;4077;43.702;24.896;2023-08-06T04:22:14;98161.13;;;20.53;100.00
8069;BME280;4077;43.702;24.896;2023-08-06T04:24:39;98165.13;;;20.60;100.00
8069;BME280;4077;43.702;24.896;2023-08-06T04:27:05;98162.41;;;20.61;100.00
8069;BME280;4077;43.702;24.896;2023-08-06T04:29:30;98174.44;;;20.65;100.00
8069;BME280;4077;43.702;24.896;2023-08-06T04:31:56;98155.78;;;20.54;100.00
8069;BME280;4077;43.702;24.896;2023-08-06T04:34:21;98165.19;;;20.75;100.00
8069;BME280;4077;43.702;24.896;2023-08-06T04:36:47;98151.44;;;20.88;100.00
8069;BME280;4077;43.702;24.896;2023-08-06T04:39:12;98136.63;;;20.87;100.00
8069;BME280;4077;43.702;24.896;2023-08-06T04:41:38;98148.34;;;20.97;100.00
8069;BME280;4077;43.702;24.896;2023-08-06T04:44:03;98128.72;;;21.04;100.00
8069;BME280;4077;43.702;24.896;2023-08-06T04:46:29;98141.28;;;21.15;100.00
8069;BME280;4077;43.702;24.896;2023-08-06T04:48:54;98140.25;;;21.17;100.00
8069;BME280;4077;43.702;24.896;2023-08-06T04:51:20;98129.69;;;21.19;100.00
8069;BME280;4077;43.702;24.896;2023-08-06T04:53:45;98127.75;;;21.22;100.00
8069;BME280;4077;43.702;24.896;2023-08-06T04:56:11;98133.22;;;21.18;100.00
8069;BME280;4077;43.702;24.896;2023-08-06T04:58:36;98138.03;;;21.10;100.00
8069;BME280;4077;43.702;24.896;2023-08-06T05:01:01;98152.78;;;21.12;100.00
8069;BME280;4077;43.702;24.896;2023-08-06T05:03:27;98139.94;;;21.23;100.00
8069;BME280;4077;43.702;24.896;2023-08-06T05:05:52;98128.72;;;21.37;100.00
8069;BME280;4077;43.702;24.896;2023-08-06T05:08:18;98113.72;;;21.39;100.00
8069;BME280;4077;43.702;24.896;2023-08-06T05:10:44;98114.25;;;21.46;100.00
8069;BME280;4077;43.702;24.896;2023-08-06T05:13:10;98119.16;;;21.52;100.00
8069;BME280;4077;43.702;24.896;2023-08-06T05:15:36;98134.59;;;21.58;100.00
8069;BME280;4077;43.702;24.896;2023-08-06T05:18:01;98139.50;;;21.64;100.00
8069;BME280;4077;43.702;24.896;2023-08-06T05:20:27;98140.50;;;21.62;100.00
8069;BME280;4077;43.702;24.896;2023-08-06T05:22:52;98146.34;;;21.51;100.00
8069;BME280;4077;43.702;24.896;2023-08-06T05:25:18;98147.53;;;21.61;100.00
8069;BME280;4077;43.702;24.896;2023-08-06T05:27:43;98134.00;;;21.69;100.00
8069;BME280;4077;43.702;24.896;2023-08-06T05:30:09;98142.53;;;21.72;100.00
8069;BME280;4077;43.702;24.896;2023-08-06T05:32:35;98134.41;;;21.61;100.00
8069;BME280;4077;43.702;24.896;2023-08-06T05:35:01;98119.34;;;21.49;100.00
8069;BME280;4077;43.702;24.896;2023-08-06T05:37:26;98120.09;;;21.51;100.00
8069;BME280;4077;43.702;24.896;2023-08-06T05:39:51;98114.84;;;21.35;100.00
8069;BME280;4077;43.702;24.896;2023-08-06T05:42:17;98115.59;;;21.37;100.00
8069;BME280;4077;43.702;24.896;2023-08-06T05:44:42;98114.91;;;21.34;100.00
8069;BME280;4077;43.702;24.896;2023-08-06T05:47:08;98115.38;;;21.24;100.00
8069;BME280;4077;43.702;24.896;2023-08-06T05:49:33;98137.47;;;21.20;100.00
8069;BME280;4077;43.702;24.896;2023-08-06T05:51:59;98140.16;;;21.19;100.00
8069;BME280;4077;43.702;24.896;2023-08-06T05:54:24;98143.69;;;21.02;100.00
8069;BME280;4077;43.702;24.896;2023-08-06T05:56:50;98144.94;;;20.95;100.00
8069;BME280;4077;43.702;24.896;2023-08-06T05:59:15;98152.28;;;20.88;100.00
8069;BME280;4077;43.702;24.896;2023-08-06T06:01:41;98151.28;;;20.91;100.00
8069;BME280;4077;43.702;24.896;2023-08-06T06:04:06;98153.13;;;20.89;100.00
8069;BME280;4077;43.702;24.896;2023-08-06T06:06:31;98159.00;;;20.94;100.00
8069;BME280;4077;43.702;24.896;2023-08-06T06:08:57;98164.38;;;20.91;100.00
8069;BME280;4077;43.702;24.896;2023-08-06T06:11:23;98160.06;;;20.90;100.00
8069;BME280;4077;43.702;24.896;2023-08-06T06:13:51;98147.13;;;20.87;100.00
8069;BME280;4077;43.702;24.896;2023-08-06T06:16:17;98145.03;;;20.93;100.00
8069;BME280;4077;43.702;24.896;2023-08-06T06:18:42;98145.72;;;20.97;100.00
8069;BME280;4077;43.702;24.896;2023-08-06T06:21:09;98144.91;;;21.12;100.00
8069;BME280;4077;43.702;24.896;2023-08-06T06:23:35;98139.31;;;21.18;100.00
8069;BME280;4077;43.702;24.896;2023-08-06T06:26:00;98142.00;;;21.34;100.00
8069;BME280;4077;43.702;24.896;2023-08-06T06:28:25;98139.00;;;21.42;100.00
8069;BME280;4077;43.702;24.896;2023-08-06T06:30:52;98126.94;;;21.38;100.00
8069;BME280;4077;43.702;24.896;2023-08-06T06:33:18;98120.66;;;21.40;100.00
8069;BME280;4077;43.702;24.896;2023-08-06T06:35:43;98112.75;;;21.42;100.00
8069;BME280;4077;43.702;24.896;2023-08-06T06:38:09;98105.25;;;21.34;100.00
8069;BME280;4077;43.702;24.896;2023-08-06T06:40:34;98114.53;;;21.41;100.00
8069;BME280;4077;43.702;24.896;2023-08-06T06:42:59;98121.03;;;21.50;100.00
8069;BME280;4077;43.702;24.896;2023-08-06T06:45:25;98113.56;;;21.58;100.00
8069;BME280;4077;43.702;24.896;2023-08-06T06:47:50;98115.13;;;21.62;100.00
8069;BME280;4077;43.702;24.896;2023-08-06T06:50:16;98100.44;;;21.74;100.00
8069;BME280;4077;43.702;24.896;2023-08-06T06:52:41;98099.00;;;21.84;100.00
8069;BME280;4077;43.702;24.896;2023-08-06T06:55:07;98103.81;;;21.92;100.00
8069;BME280;4077;43.702;24.896;2023-08-06T06:57:32;98108.13;;;21.93;100.00
8069;BME280;4077;43.702;24.896;2023-08-06T06:59:58;98135.75;;;22.00;100.00
8069;BME280;4077;43.702;24.896;2023-08-06T07:02:23;98143.22;;;21.92;100.00
8069;BME280;4077;43.702;24.896;2023-08-06T07:04:50;98121.94;;;21.96;100.00
8069;BME280;4077;43.702;24.896;2023-08-06T07:07:15;98106.00;;;21.99;100.00
8069;BME280;4077;43.702;24.896;2023-08-06T07:09:41;98098.97;;;22.00;100.00
8069;BME280;4077;43.702;24.896;2023-08-06T07:12:06;98101.59;;;22.00;100.00
8069;BME280;4077;43.702;24.896;2023-08-06T07:14:32;98101.59;;;22.00;100.00
8069;BME280;4077;43.702;24.896;2023-08-06T07:16:57;98102.13;;;21.91;100.00
8069;BME280;4077;43.702;24.896;2023-08-06T07:19:23;98100.78;;;21.83;100.00
8069;BME280;4077;43.702;24.896;2023-08-06T07:21:49;98100.44;;;21.74;100.00
8069;BME280;4077;43.702;24.896;2023-08-06T07:24:14;98096.63;;;21.64;100.00
8069;BME280;4077;43.702;24.896;2023-08-06T07:26:39;98124.09;;;21.58;100.00
8069;BME280;4077;43.702;24.896;2023-08-06T07:29:05;98166.44;;;21.52;100.00
8069;BME280;4077;43.702;24.896;2023-08-06T07:31:30;98215.69;;;21.47;100.00
8069;BME280;4077;43.702;24.896;2023-08-06T07:33:56;98255.34;;;21.42;100.00
8069;BME280;4077;43.702;24.896;2023-08-06T07:36:21;98277.81;;;21.30;100.00
8069;BME280;4077;43.702;24.896;2023-08-06T07:38:47;98276.91;;;21.32;100.00
8069;BME280;4077;43.702;24.896;2023-08-06T07:41:14;98244.06;;;21.06;100.00
8069;BME280;4077;43.702;24.896;2023-08-06T07:43:39;98211.09;;;20.67;100.00
8069;BME280;4077;43.702;24.896;2023-08-06T07:46:05;98196.44;;;20.27;100.00
8069;BME280;4077;43.702;24.896;2023-08-06T07:48:31;98180.97;;;20.03;100.00
8069;BME280;4077;43.702;24.896;2023-08-06T07:50:57;98161.66;;;19.87;100.00
8069;BME280;4077;43.702;24.896;2023-08-06T07:53:23;98145.47;;;19.79;100.00
8069;BME280;4077;43.702;24.896;2023-08-06T07:55:50;98128.38;;;19.72;100.00
8069;BME280;4077;43.702;24.896;2023-08-06T07:58:16;98160.59;;;19.53;100.00
8069;BME280;4077;43.702;24.896;2023-08-06T08:00:41;98179.28;;;19.46;100.00
8069;BME280;4077;43.702;24.896;2023-08-06T08:03:11;98214.91;;;19.48;100.00
8069;BME280;4077;43.702;24.896;2023-08-06T08:05:37;98225.25;;;19.51;100.00
8069;BME280;4077;43.702;24.896;2023-08-06T08:08:02;98244.13;;;19.59;100.00
8069;BME280;4077;43.702;24.896;2023-08-06T08:10:27;98260.59;;;19.61;100.00
8069;BME280;4077;43.702;24.896;2023-08-06T08:12:53;98261.91;;;19.51;100.00
8069;BME280;4077;43.702;24.896;2023-08-06T08:15:18;98259.47;;;19.47;100.00
8069;BME280;4077;43.702;24.896;2023-08-06T08:17:44;98258.19;;;19.36;100.00
8069;BME280;4077;43.702;24.896;2023-08-06T08:20:09;98266.09;;;19.35;100.00
8069;BME280;4077;43.702;24.896;2023-08-06T08:22:35;98265.41;;;19.31;100.00
8069;BME280;4077;43.702;24.896;2023-08-06T08:25:00;98263.97;;;19.24;100.00
8069;BME280;4077;43.702;24.896;2023-08-06T08:27:26;98272.72;;;19.23;100.00
8069;BME280;4077;43.702;24.896;2023-08-06T08:29:51;98249.91;;;19.06;100.00
8069;BME280;4077;43.702;24.896;2023-08-06T08:32:17;98223.88;;;19.03;100.00
8069;BME280;4077;43.702;24.896;2023-08-06T08:34:42;98236.44;;;19.16;100.00
8069;BME280;4077;43.702;24.896;2023-08-06T08:37:09;98235.38;;;19.20;100.00
8069;BME280;4077;43.702;24.896;2023-08-06T08:39:34;98230.41;;;19.13;100.00
8069;BME280;4077;43.702;24.896;2023-08-06T08:42:00;98221.63;;;19.14;100.00
8069;BME280;4077;43.702;24.896;2023-08-06T08:44:27;98195.56;;;19.13;100.00
8069;BME280;4077;43.702;24.896;2023-08-06T08:46:54;98168.03;;;19.04;100.00
8069;BME280;4077;43.702;24.896;2023-08-06T08:49:21;98176.66;;;19.06;100.00
8069;BME280;4077;43.702;24.896;2023-08-06T08:51:49;98185.69;;;18.99;100.00
8069;BME280;4077;43.702;24.896;2023-08-06T08:54:17;98208.47;;;18.97;100.00
8069;BME280;4077;43.702;24.896;2023-08-06T08:56:43;98221.34;;;19.02;100.00
8069;BME280;4077;43.702;24.896;2023-08-06T08:59:10;98228.19;;;19.04;100.00
8069;BME280;4077;43.702;24.896;2023-08-06T09:01:37;98226.25;;;19.09;100.00
8069;BME280;4077;43.702;24.896;2023-08-06T09:04:05;98241.59;;;19.17;100.00
8069;BME280;4077;43.702;24.896;2023-08-06T09:06:35;98239.06;;;19.16;100.00
8069;BME280;4077;43.702;24.896;2023-08-06T09:09:11;98249.63;;;19.12;100.00
8069;BME280;4077;43.702;24.896;2023-08-06T09:11:44;98249.38;;;18.98;100.00
8069;BME280;4077;43.702;24.896;2023-08-06T09:14:11;98233.50;;;19.03;100.00
8069;BME280;4077;43.702;24.896;2023-08-06T09:16:37;98237.16;;;18.99;100.00
8069;BME280;4077;43.702;24.896;2023-08-06T09:19:09;98236.72;;;19.09;100.00
8069;BME280;4077;43.702;24.896;2023-08-06T09:21:39;98225.06;;;19.17;100.00
8069;BME280;4077;43.702;24.896;2023-08-06T09:24:11;98214.06;;;19.29;100.00
8069;BME280;4077;43.702;24.896;2023-08-06T09:26:40;98208.81;;;19.29;100.00
8069;BME280;4077;43.702;24.896;2023-08-06T09:29:07;98224.94;;;19.38;100.00
8069;BME280;4077;43.702;24.896;2023-08-06T09:31:47;98217.88;;;19.40;100.00
8069;BME280;4077;43.702;24.896;2023-08-06T09:34:20;98207.63;;;19.36;100.00
8069;BME280;4077;43.702;24.896;2023-08-06T09:36:53;98211.38;;;19.30;100.00
8069;BME280;4077;43.702;24.896;2023-08-06T09:39:20;98222.69;;;19.31;100.00
8069;BME280;4077;43.702;24.896;2023-08-06T09:41:47;98197.56;;;19.27;100.00
8069;BME280;4077;43.702;24.896;2023-08-06T09:44:20;98198.75;;;19.20;100.00
8069;BME280;4077;43.702;24.896;2023-08-06T09:46:54;98169.63;;;19.08;100.00
8069;BME280;4077;43.702;24.896;2023-08-06T09:49:25;98166.47;;;19.00;100.00
8069;BME280;4077;43.702;24.896;2023-08-06T09:51:51;98156.94;;;18.99;100.00
8069;BME280;4077;43.702;24.896;2023-08-06T09:54:17;98163.94;;;18.99;100.00
8069;BME280;4077;43.702;24.896;2023-08-06T09:56:46;98151.78;;;18.98;100.00
8069;BME280;4077;43.702;24.896;2023-08-06T09:59:12;98140.03;;;19.06;100.00
8069;BME280;4077;43.702;24.896;2023-08-06T10:01:37;98125.94;;;19.10;100.00
8069;BME280;4077;43.702;24.896;2023-08-06T10:04:05;98129.19;;;19.16;100.00
8069;BME280;4077;43.702;24.896;2023-08-06T10:06:34;98157.13;;;19.15;100.00
8069;BME280;4077;43.702;24.896;2023-08-06T10:09:04;98185.81;;;19.17;100.00
8069;BME280;4077;43.702;24.896;2023-08-06T10:11:30;98186.59;;;19.19;100.00
8069;BME280;4077;43.702;24.896;2023-08-06T10:14:02;98208.28;;;19.21;100.00
8069;BME280;4077;43.702;24.896;2023-08-06T10:16:29;98235.00;;;19.29;100.00
8069;BME280;4077;43.702;24.896;2023-08-06T10:18:56;98227.84;;;19.32;100.00
8069;BME280;4077;43.702;24.896;2023-08-06T10:21:23;98223.97;;;19.41;100.00
8069;BME280;4077;43.702;24.896;2023-08-06T10:23:54;98223.41;;;19.53;100.00
8069;BME280;4077;43.702;24.896;2023-08-06T10:26:20;98215.47;;;19.55;100.00
8069;BME280;4077;43.702;24.896;2023-08-06T10:28:45;98197.88;;;19.39;100.00
8069;BME280;4077;43.702;24.896;2023-08-06T10:31:11;98180.03;;;19.29;100.00
8069;BME280;4077;43.702;24.896;2023-08-06T10:33:40;98188.03;;;19.45;100.00
8069;BME280;4077;43.702;24.896;2023-08-06T10:36:08;98181.47;;;19.55;100.00
8069;BME280;4077;43.702;24.896;2023-08-06T10:38:50;98151.13;;;19.51;100.00
8069;BME280;4077;43.702;24.896;2023-08-06T10:41:23;98162.47;;;19.70;100.00
8069;BME280;4077;43.702;24.896;2023-08-06T10:43:52;98177.66;;;19.81;100.00
8069;BME280;4077;43.702;24.896;2023-08-06T10:46:30;98192.31;;;19.85;100.00
8069;BME280;4077;43.702;24.896;2023-08-06T10:48:55;98206.00;;;19.73;100.00
8069;BME280;4077;43.702;24.896;2023-08-06T10:51:21;98208.13;;;19.83;100.00
8069;BME280;4077;43.702;24.896;2023-08-06T10:53:49;98191.53;;;19.83;100.00
8069;BME280;4077;43.702;24.896;2023-08-06T10:56:16;98203.84;;;19.81;100.00
8069;BME280;4077;43.702;24.896;2023-08-06T10:58:43;98212.34;;;19.86;100.00
8069;BME280;4077;43.702;24.896;2023-08-06T11:01:09;98203.94;;;19.98;100.00
8069;BME280;4077;43.702;24.896;2023-08-06T11:03:35;98197.41;;;20.07;100.00
8069;BME280;4077;43.702;24.896;2023-08-06T11:06:01;98189.06;;;19.99;100.00
8069;BME280;4077;43.702;24.896;2023-08-06T11:08:29;98191.31;;;20.06;100.00
8069;BME280;4077;43.702;24.896;2023-08-06T11:10:55;98195.81;;;20.21;100.00
8069;BME280;4077;43.702;24.896;2023-08-06T11:13:32;98192.13;;;20.26;100.00
8069;BME280;4077;43.702;24.896;2023-08-06T11:15:58;98208.78;;;20.42;100.00
8069;BME280;4077;43.702;24.896;2023-08-06T11:18:23;98205.13;;;20.63;100.00
8069;BME280;4077;43.702;24.896;2023-08-06T11:20:49;98190.41;;;20.78;100.00
8069;BME280;4077;43.702;24.896;2023-08-06T11:23:14;98192.31;;;20.92;100.00
8069;BME280;4077;43.702;24.896;2023-08-06T11:25:46;98193.69;;;20.99;100.00
8069;BME280;4077;43.702;24.896;2023-08-06T11:28:12;98186.28;;;21.07;100.00
8069;BME280;4077;43.702;24.896;2023-08-06T11:30:38;98193.75;;;21.15;100.00
8069;BME280;4077;43.702;24.896;2023-08-06T11:33:06;98214.06;;;21.11;100.00
8069;BME280;4077;43.702;24.896;2023-08-06T11:35:34;98209.13;;;21.05;100.00
8069;BME280;4077;43.702;24.896;2023-08-06T11:38:00;98225.56;;;21.09;100.00
8069;BME280;4077;43.702;24.896;2023-08-06T11:40:25;98221.16;;;21.09;100.00
8069;BME280;4077;43.702;24.896;2023-08-06T11:42:51;98216.69;;;21.11;100.00
8069;BME280;4077;43.702;24.896;2023-08-06T11:45:22;98234.13;;;21.29;100.00
8069;BME280;4077;43.702;24.896;2023-08-06T11:47:50;98238.94;;;21.54;100.00
8069;BME280;4077;43.702;24.896;2023-08-06T11:50:27;98238.97;;;21.70;100.00
8069;BME280;4077;43.702;24.896;2023-08-06T11:52:56;98245.59;;;21.77;100.00
8069;BME280;4077;43.702;24.896;2023-08-06T11:55:24;98244.91;;;21.74;100.00
8069;BME280;4077;43.702;24.896;2023-08-06T11:57:50;98245.16;;;21.69;100.00
8069;BME280;4077;43.702;24.896;2023-08-06T12:00:16;98245.78;;;21.90;100.00
8069;BME280;4077;43.702;24.896;2023-08-06T12:02:47;98246.09;;;22.00;100.00
8069;BME280;4077;43.702;24.896;2023-08-06T12:05:21;98248.00;;;22.14;100.00
8069;BME280;4077;43.702;24.896;2023-08-06T12:07:50;98249.22;;;22.24;100.00
8069;BME280;4077;43.702;24.896;2023-08-06T12:10:17;98234.97;;;22.12;100.00
8069;BME280;4077;43.702;24.896;2023-08-06T12:12:45;98249.72;;;22.30;100.00
8069;BME280;4077;43.702;24.896;2023-08-06T12:15:10;98249.09;;;22.41;100.00
8069;BME280;4077;43.702;24.896;2023-08-06T12:17:36;98249.09;;;22.41;100.00
8069;BME280;4077;43.702;24.896;2023-08-06T12:20:03;98259.59;;;22.41;100.00
8069;BME280;4077;43.702;24.896;2023-08-06T12:22:33;98245.97;;;22.34;100.00
8069;BME280;4077;43.702;24.896;2023-08-06T12:25:03;98242.38;;;22.35;100.00
8069;BME280;4077;43.702;24.896;2023-08-06T12:27:32;98234.16;;;22.42;100.00
8069;BME280;4077;43.702;24.896;2023-08-06T12:29:57;98233.38;;;22.55;100.00
8069;BME280;4077;43.702;24.896;2023-08-06T12:32:23;98227.56;;;22.64;100.00
8069;BME280;4077;43.702;24.896;2023-08-06T12:34:48;98218.72;;;22.81;100.00
8069;BME280;4077;43.702;24.896;2023-08-06T12:37:13;98212.66;;;22.95;100.00
8069;BME280;4077;43.702;24.896;2023-08-06T12:39:39;98211.66;;;23.12;100.00
8069;BME280;4077;43.702;24.896;2023-08-06T12:42:05;98213.66;;;23.23;100.00
8069;BME280;4077;43.702;24.896;2023-08-06T12:44:31;98213.28;;;23.29;100.00
8069;BME280;4077;43.702;24.896;2023-08-06T12:46:57;98215.59;;;23.33;100.00
8069;BME280;4077;43.702;24.896;2023-08-06T12:49:24;98204.91;;;23.36;100.00
8069;BME280;4077;43.702;24.896;2023-08-06T12:51:50;98213.19;;;23.44;100.00
8069;BME280;4077;43.702;24.896;2023-08-06T12:54:19;98207.53;;;23.51;100.00
8069;BME280;4077;43.702;24.896;2023-08-06T12:56:45;98206.69;;;23.50;100.00
8069;BME280;4077;43.702;24.896;2023-08-06T12:59:11;98193.75;;;23.61;100.00
8069;BME280;4077;43.702;24.896;2023-08-06T13:01:38;98200.13;;;23.71;100.00
8069;BME280;4077;43.702;24.896;2023-08-06T13:04:03;98199.06;;;23.74;100.00